• Join FlightAware (Why Join?)
  • Login
  • US Flag 
 
05:11PM EST


 

Airport Tracker/Info


-or-


 

Live Flight TrackerFlight Track Log ✈ N244A ✈ 03-Jul-2013 ✈ KGSP - KINT

Flight Track Log - Related Links

Times and Time Zones

All times are in EDT time to prevent confusion due to time zone crossing. See the N244A flight status page for this flight to view local times or setup timezone preferences in your user account.

Time Position Orientation Groundspeed Altitude Reporting Facility
EDT Latitude Longitude Course Direction KTS MPH feet Rate Location/Type
06:01PM 34.8078 -82.2400 181° South 256 295 4,600  Level Atlanta Center
06:02PM 34.8025 -82.1517 94° East 268 308 7,500 3,000 Climbing Atlanta Center
06:03PM 34.8639 -82.0819 43° Northeast 242 278 10,600 2,640 Climbing Atlanta Center
06:04PM 34.9531 -82.0444 19° North 277 319 12,800 1,140 Climbing Atlanta Center
06:05PM 35.0656 -82.0342 North 341 392 12,900 120 Climbing Atlanta Center
06:06PM 35.2237 -81.9333 North  Level FlightAware Approximate
06:06PM 35.1883 -82.0133 North 413 475 13,100  Level Atlanta Center
06:07PM 35.3111 -81.9900 North 440 506 13,100 -60 Level Atlanta Center
06:08PM 35.4250 -81.9464 17° North 435 501 13,000 -60 Descending Atlanta Center
06:09PM 35.5425 -81.8667 29° Northeast 435 501 13,000  Level Atlanta Center
06:10PM 35.6564 -81.8153 20° North 430 495 13,000  Level Atlanta Center
06:11PM 35.7733 -81.8247 356° North 425 489 13,100  Climbing Atlanta Center
06:12PM 35.8636 -81.7378 38° Northeast 397 457 13,000  Descending Atlanta Center
06:13PM 35.8925 -81.6089 74° East 347 399 13,100  Climbing Atlanta Center
06:14PM 35.9128 -81.4800 79° East 366 421 13,000 -120 Descending Atlanta Center
06:15PM 35.9372 -81.3611 76° East 380 437 12,900 -60 Descending Atlanta Center
06:16PM 35.9594 -81.2272 78° East 386 444 12,900  Level Atlanta Center
06:17PM 35.9814 -81.0956 78° East 391 450 12,900 -420 Level Atlanta Center
06:18PM 36.0072 -80.9636 76° East 391 450 12,100 -1,260 Descending Atlanta Center
06:19PM 36.0269 -80.8319 79° East 372 428 10,400 -1,620 Descending Atlanta Center
06:20PM 36.0158 -80.7297 98° East 314 361 8,900 -780 Descending Atlanta Center
06:21PM 36.0297 -80.6342 80° East 287 330 8,900 -180 Level Atlanta Center
06:22PM 36.0581 -80.5275 72° East 299 344 8,600 -1,200 Descending Atlanta Center
06:23PM 36.0825 -80.4342 72° East 312 359 6,600 -2,340 Descending Atlanta Center
06:24PM 36.1047 -80.3356 74° East 307 353 4,000 -2,400 Descending Atlanta Center
06:25PM 36.1267 -80.2367 75° East 302 348 1,900 -1,380 Descending Atlanta Center
06:26PM 36.0936 -80.1817 127° Southeast 194 223 1,300 -420 Descending Atlanta Center
06:27PM 36.1172 -80.2011 326° Northwest 43 49 1,100 -240 Descending Atlanta Center
06:29PM 36.1333 -80.2167 321° Northwest  Level FlightAware Approximate